Time;durP1;ratioP1;P1;durP2;ratioP2;P2;SDS_P1;SDS_P2;PMS_P1;PMS_P2;Temp;Humidity;BMP_temperature;BMP_pressure;BME280_temperature;BME280_humidity;BME280_pressure;Samples;Min_cycle;Max_cycle;Signal;HPM_P1;HPM_P2
2022/07/22 00:00:16;;;;;;;10.17;3.50;;;;;;;14.57;100.00;102074.50;5031275;28;20029;-90
2022/07/22 00:02:42;;;;;;;6.93;3.10;;;;;;;14.55;100.00;102069.38;5031903;28;20080;-90
2022/07/22 00:05:08;;;;;;;4.03;3.17;;;;;;;14.55;100.00;102077.47;5031792;28;20022;-89
2022/07/22 00:07:33;;;;;;;12.43;3.73;;;;;;;14.57;100.00;102072.63;5032228;28;20276;-90
2022/07/22 00:09:58;;;;;;;7.22;3.17;;;;;;;14.54;100.00;102065.06;5032735;28;20025;-89
2022/07/22 00:12:24;;;;;;;7.87;3.60;;;;;;;14.57;100.00;102067.25;5013286;28;20049;-90
2022/07/22 00:14:49;;;;;;;6.53;3.33;;;;;;;14.61;100.00;102076.44;5032216;28;20028;-90
2022/07/22 00:17:14;;;;;;;13.10;4.00;;;;;;;14.57;100.00;102063.72;5030339;28;20025;-90
2022/07/22 00:19:40;;;;;;;7.65;3.40;;;;;;;14.64;100.00;102067.03;5032831;28;20029;-90
2022/07/22 00:22:05;;;;;;;14.33;4.47;;;;;;;14.59;100.00;102069.66;5031554;28;20116;-90
2022/07/22 00:24:30;;;;;;;7.07;4.03;;;;;;;14.60;100.00;102066.75;5031976;28;20040;-90
2022/07/22 00:26:56;;;;;;;13.43;4.03;;;;;;;14.64;100.00;102070.53;5032395;28;20025;-90
2022/07/22 00:29:21;;;;;;;10.03;4.57;;;;;;;14.68;100.00;102071.69;5032069;28;20025;-90
2022/07/22 00:31:46;;;;;;;12.10;4.07;;;;;;;14.73;100.00;102070.91;5029777;28;20095;-91
2022/07/22 00:34:12;;;;;;;8.75;3.75;;;;;;;14.77;100.00;102069.34;5031273;28;20536;-89
2022/07/22 00:36:37;;;;;;;11.77;4.60;;;;;;;14.76;100.00;102077.69;5032494;28;20017;-90
2022/07/22 00:39:03;;;;;;;15.17;4.60;;;;;;;14.72;100.00;102076.56;5032702;28;20041;-89
2022/07/22 00:41:28;;;;;;;13.60;4.43;;;;;;;14.75;100.00;102073.38;5030512;28;20029;-89
2022/07/22 00:44:00;;;;;;;14.53;4.00;;;;;;;14.75;100.00;102067.97;5032082;28;20021;-89
2022/07/22 00:46:26;;;;;;;10.52;3.88;;;;;;;14.78;100.00;102067.47;5031643;28;20033;-90
2022/07/22 00:48:54;;;;;;;17.55;4.65;;;;;;;14.80;100.00;102066.13;5030059;28;20030;-90
2022/07/22 00:51:20;;;;;;;11.03;3.90;;;;;;;14.79;100.00;102061.81;5031785;28;20029;-90
2022/07/22 00:53:46;;;;;;;7.40;3.70;;;;;;;14.87;100.00;102065.13;5030038;28;20834;-90
2022/07/22 00:56:12;;;;;;;12.73;3.88;;;;;;;14.89;100.00;102065.66;5031608;28;20021;-90
2022/07/22 00:58:37;;;;;;;9.20;4.10;;;;;;;14.85;100.00;102059.97;5031768;28;20036;-90
2022/07/22 01:01:03;;;;;;;8.93;3.83;;;;;;;14.85;100.00;102059.97;5031950;28;20083;-90
2022/07/22 01:03:28;;;;;;;11.17;3.87;;;;;;;14.85;100.00;102065.34;5029539;28;20033;-90
2022/07/22 01:05:54;;;;;;;11.70;4.25;;;;;;;14.86;100.00;102058.09;5031042;28;20056;-90
2022/07/22 01:08:19;;;;;;;11.20;4.33;;;;;;;14.84;100.00;102055.63;5030973;28;20025;-90
2022/07/22 01:10:44;;;;;;;12.20;4.23;;;;;;;14.83;100.00;102048.59;5031759;28;20029;-90
2022/07/22 01:13:10;;;;;;;12.63;4.67;;;;;;;14.81;100.00;102050.75;5030765;28;20033;-90
2022/07/22 01:15:35;;;;;;;15.00;4.63;;;;;;;14.79;100.00;102044.81;5031719;28;20029;-89
2022/07/22 01:18:01;;;;;;;10.90;4.35;;;;;;;14.74;100.00;102042.06;5013792;28;20459;-89
2022/07/22 01:20:26;;;;;;;10.13;4.47;;;;;;;14.67;100.00;102047.66;5031876;28;20026;-90
2022/07/22 01:22:52;;;;;;;13.80;4.53;;;;;;;14.64;100.00;102048.94;5030555;28;20060;-90
2022/07/22 01:25:17;;;;;;;15.83;4.67;;;;;;;14.59;100.00;102043.53;5029176;28;20120;-90
2022/07/22 01:27:42;;;;;;;17.87;4.87;;;;;;;14.48;100.00;102042.63;5031830;28;20060;-90
2022/07/22 01:30:08;;;;;;;11.73;4.27;;;;;;;14.35;100.00;102041.13;5031164;28;20087;-89
2022/07/22 01:32:34;;;;;;;7.75;4.38;;;;;;;14.25;100.00;102041.00;5030391;28;20025;-89
2022/07/22 01:34:59;;;;;;;16.30;5.37;;;;;;;14.12;100.00;102038.69;5030865;28;20032;-90
2022/07/22 01:37:24;;;;;;;9.80;4.93;;;;;;;14.05;100.00;102042.44;5030728;28;20043;-90
2022/07/22 01:39:50;;;;;;;18.77;5.17;;;;;;;13.96;100.00;102038.53;5029516;28;20025;-90
2022/07/22 01:42:15;;;;;;;13.37;4.50;;;;;;;13.90;100.00;102034.97;5027641;28;20060;-90
2022/07/22 01:44:41;;;;;;;12.85;4.90;;;;;;;13.83;100.00;102039.72;5031064;28;20109;-90
2022/07/22 01:47:07;;;;;;;17.73;5.10;;;;;;;13.76;100.00;102037.19;5012839;28;20120;-90
2022/07/22 01:49:34;;;;;;;15.48;5.35;;;;;;;13.72;100.00;102048.72;5031238;28;20029;-89
2022/07/22 01:52:00;;;;;;;17.13;5.20;;;;;;;13.70;100.00;102048.97;5012242;28;20022;-89
2022/07/22 01:54:25;;;;;;;18.77;5.40;;;;;;;13.72;100.00;102048.72;5030300;28;20116;-89
2022/07/22 01:56:50;;;;;;;7.85;5.25;;;;;;;13.78;100.00;102053.94;5029182;28;20494;-89
2022/07/22 01:59:16;;;;;;;17.67;5.50;;;;;;;13.81;100.00;102043.72;5029936;28;20026;-90
2022/07/22 02:01:41;;;;;;;14.47;5.73;;;;;;;13.85;100.00;102044.88;5029870;28;20025;-90
2022/07/22 02:04:07;;;;;;;14.50;6.10;;;;;;;13.89;100.00;102038.72;5030162;28;20029;-90
2022/07/22 02:06:32;;;;;;;13.88;5.95;;;;;;;13.94;100.00;102043.34;5031067;28;20420;-89
2022/07/22 02:08:58;;;;;;;12.80;5.80;;;;;;;14.02;100.00;102042.09;5031120;28;20118;-89
2022/07/22 02:11:23;;;;;;;10.52;4.70;;;;;;;14.11;100.00;102039.75;5030284;28;20025;-89
2022/07/22 02:13:49;;;;;;;13.80;5.40;;;;;;;14.16;100.00;102042.53;5029875;28;20029;-90
2022/07/22 02:16:14;;;;;;;14.30;5.57;;;;;;;14.20;100.00;102028.28;5028968;28;20109;-89
2022/07/22 02:18:39;;;;;;;15.90;5.93;;;;;;;14.28;100.00;102037.81;5030818;28;20110;-90
2022/07/22 02:21:05;;;;;;;11.93;5.50;;;;;;;14.32;100.00;102038.13;5031052;28;20025;-89
2022/07/22 02:23:30;;;;;;;14.70;5.93;;;;;;;14.36;100.00;102037.38;5028947;28;20037;-89
2022/07/22 02:25:55;;;;;;;14.90;5.53;;;;;;;14.34;100.00;102033.28;5031025;28;20112;-89
2022/07/22 02:28:22;;;;;;;17.47;6.60;;;;;;;14.37;100.00;102039.00;5030612;28;20108;-89
2022/07/22 02:30:47;;;;;;;12.20;5.70;;;;;;;14.37;100.00;102041.69;5030257;28;20083;-89
2022/07/22 02:33:14;;;;;;;17.40;6.07;;;;;;;14.37;100.00;102036.28;5010060;28;20025;-91
2022/07/22 02:35:39;;;;;;;11.73;5.63;;;;;;;14.36;100.00;102042.75;5012893;28;20032;-89
2022/07/22 02:38:06;;;;;;;12.67;5.20;;;;;;;14.34;100.00;102039.50;5030585;28;20041;-89
2022/07/22 02:40:32;;;;;;;15.43;5.40;;;;;;;14.33;100.00;102043.25;5030403;28;20575;-90
2022/07/22 02:42:57;;;;;;;16.23;5.80;;;;;;;14.33;100.00;102047.84;5029104;28;20021;-89
2022/07/22 02:45:23;;;;;;;11.97;5.40;;;;;;;14.34;100.00;102039.50;5029848;28;20303;-90
2022/07/22 02:47:52;;;;;;;19.13;6.15;;;;;;;14.35;100.00;102030.34;5030284;28;20030;-90
2022/07/22 02:50:17;;;;;;;14.17;6.20;;;;;;;14.37;100.00;102032.78;5031855;28;20069;-89
2022/07/22 02:52:42;;;;;;;11.90;5.57;;;;;;;14.35;100.00;102030.34;5049093;23;20367;-90
2022/07/22 02:55:08;;;;;;;14.97;6.40;;;;;;;14.40;100.00;102032.28;5013967;28;20094;-89
2022/07/22 02:57:34;;;;;;;10.35;5.70;;;;;;;14.40;100.00;102026.88;4996830;28;20219;-89
2022/07/22 02:59:59;;;;;;;16.50;6.00;;;;;;;14.43;100.00;102037.16;5013283;28;20026;-87
2022/07/22 03:02:26;;;;;;;12.60;5.87;;;;;;;14.42;100.00;102026.63;5012898;28;20060;-89
2022/07/22 03:04:51;;;;;;;18.17;6.38;;;;;;;14.41;100.00;102022.31;5014133;28;20030;-89
2022/07/22 03:07:16;;;;;;;18.17;6.37;;;;;;;14.39;100.00;102020.69;5012613;28;20029;-88
2022/07/22 03:09:41;;;;;;;13.97;6.33;;;;;;;14.44;100.00;102024.47;5010684;28;20137;-88
2022/07/22 03:12:07;;;;;;;19.90;6.40;;;;;;;14.46;100.00;102020.47;5011160;28;20336;-87
2022/07/22 03:14:33;;;;;;;16.63;5.70;;;;;;;14.49;100.00;102017.28;5012581;28;20129;-85
2022/07/22 03:16:58;;;;;;;12.25;6.22;;;;;;;14.47;100.00;102013.19;5014353;28;20104;-85
2022/07/22 03:19:23;;;;;;;21.03;6.77;;;;;;;14.44;100.00;102011.00;5009813;28;20048;-85
2022/07/22 03:21:48;;;;;;;17.73;6.00;;;;;;;14.41;100.00;102012.31;4997441;28;20041;-85
2022/07/22 03:24:14;;;;;;;13.20;5.93;;;;;;;14.40;100.00;102010.69;5013078;28;20049;-86
2022/07/22 03:26:39;;;;;;;18.63;6.30;;;;;;;14.41;100.00;102006.13;4996750;28;20022;-86
2022/07/22 03:29:05;;;;;;;19.90;7.10;;;;;;;14.38;100.00;102015.53;5014314;28;20072;-86
2022/07/22 03:31:31;;;;;;;17.77;6.25;;;;;;;14.37;100.00;102012.03;4996685;28;20045;-86
2022/07/22 03:33:56;;;;;;;18.63;7.00;;;;;;;14.34;100.00;102011.69;5013222;28;20033;-85
2022/07/22 03:36:22;;;;;;;12.63;6.03;;;;;;;14.34;100.00;102011.69;5013521;28;20060;-86
2022/07/22 03:38:47;;;;;;;16.03;6.37;;;;;;;14.31;100.00;102007.66;5014387;28;20477;-86
2022/07/22 03:41:13;;;;;;;13.50;6.10;;;;;;;14.33;100.00;102016.28;5013193;28;20040;-87
2022/07/22 03:43:40;;;;;;;16.38;6.75;;;;;;;14.31;100.00;102013.03;5013039;28;20133;-86
2022/07/22 03:46:06;;;;;;;19.05;6.55;;;;;;;14.30;100.00;102008.72;5013844;28;20029;-86
2022/07/22 03:48:32;;;;;;;14.20;6.33;;;;;;;14.32;100.00;102008.47;5012511;28;20508;-87
2022/07/22 03:50:57;;;;;;;11.50;5.97;;;;;;;14.33;100.00;102016.28;5023325;28;20311;-85
2022/07/22 03:53:23;;;;;;;17.47;6.27;;;;;;;14.35;100.00;102024.94;5013906;28;20040;-86
2022/07/22 03:55:48;;;;;;;15.57;6.23;;;;;;;14.34;100.00;102027.88;5012583;28;20045;-86
2022/07/22 03:58:16;;;;;;;14.57;6.73;;;;;;;14.36;100.00;102029.28;5013448;28;20675;-85
2022/07/22 04:00:41;;;;;;;19.38;6.60;;;;;;;14.37;100.00;102021.97;5009801;28;20049;-85
2022/07/22 04:03:07;;;;;;;18.83;7.13;;;;;;;14.39;100.00;102019.84;5010767;28;20500;-85
2022/07/22 04:05:32;;;;;;;16.87;6.53;;;;;;;14.45;100.00;102023.41;5012542;28;20017;-86
2022/07/22 04:07:57;;;;;;;20.03;6.80;;;;;;;14.46;100.00;102025.03;4996119;28;20382;-87
2022/07/22 04:10:22;;;;;;;18.47;6.33;;;;;;;14.50;100.00;102031.56;4995930;28;20109;-87
2022/07/22 04:12:48;;;;;;;19.33;7.18;;;;;;;14.56;100.00;102030.53;5010538;28;20508;-88
2022/07/22 04:15:13;;;;;;;18.63;6.90;;;;;;;14.58;100.00;102033.81;5013074;28;20485;-87
2022/07/22 04:17:38;;;;;;;17.07;7.03;;;;;;;14.61;100.00;102033.28;5013262;28;20026;-88
2022/07/22 04:20:05;;;;;;;16.43;7.10;;;;;;;14.66;100.00;102030.63;5013426;28;20032;-87
2022/07/22 04:37:50;;;;;;;17.03;7.43;;;;;;;14.91;100.00;102036.53;4994427;28;21011;-90
2022/07/22 04:43:06;;;;;;;16.45;6.80;;;;;;;14.87;100.00;102013.84;5000694;23;20051;-89
2022/07/22 04:45:38;;;;;;;15.70;6.60;;;;;;;14.99;100.00;102022.56;4976087;28;20173;-88
2022/07/22 04:54:46;;;;;;;17.15;6.63;;;;;;;15.17;100.00;102013.22;4979710;28;20045;-88
2022/07/22 05:04:08;;;;;;;20.30;7.50;;;;;;;15.42;100.00;102014.47;4970055;28;20034;-88
2022/07/22 05:06:42;;;;;;;14.70;6.72;;;;;;;15.49;100.00;102020.47;4954084;29;20041;-88
2022/07/22 05:13:22;;;;;;;15.43;7.30;;;;;;;15.71;100.00;102027.56;4970958;28;20058;-89
2022/07/22 05:19:13;;;;;;;19.83;7.10;;;;;;;15.80;100.00;102003.56;4872624;29;20717;-88
2022/07/22 05:26:15;;;;;;;15.15;6.68;;;;;;;16.40;100.00;102022.16;4869449;29;20760;-88
2022/07/22 05:35:05;;;;;;;16.02;6.70;;;;;;;17.66;100.00;102017.16;4896005;29;20507;-88
2022/07/22 05:37:31;;;;;;;16.53;7.13;;;;;;;17.92;100.00;102019.78;4912544;29;20089;-88
2022/07/22 05:42:40;;;;;;;11.65;5.60;;;;;;;17.43;100.00;102026.72;4930183;28;20145;-89
2022/07/22 05:45:13;;;;;;;12.43;6.27;;;;;;;17.21;100.00;102017.03;4991577;28;20510;-88
2022/07/22 05:48:04;;;;;;;18.60;6.93;;;;;;;17.05;100.00;102029.78;4991620;28;20117;-90
2022/07/22 05:56:37;;;;;;;14.80;6.00;;;;;;;17.05;100.00;102025.19;4930432;29;20044;-90
2022/07/22 06:09:39;;;;;;;13.55;7.38;;;;;;;17.03;100.00;102029.25;4835285;29;20052;-90
2022/07/22 06:50:09;;;;;;;9.60;3.97;;;;;;;19.50;90.05;102031.59;4970782;28;20042;-89
2022/07/22 07:00:08;;;;;;;9.80;3.45;;;;;;;20.26;85.17;102025.50;4972495;28;20107;-89
2022/07/22 07:03:08;;;;;;;15.68;4.70;;;;;;;20.35;76.12;102034.59;5334098;22;20050;-87
2022/07/22 07:11:58;;;;;;;10.13;3.70;;;;;;;20.74;73.93;102027.19;5668434;22;20027;-87
2022/07/22 07:14:35;;;;;;;6.93;2.50;;;;;;;20.85;77.18;102017.78;5009953;28;20277;-87
2022/07/22 07:18:03;;;;;;;4.13;1.65;;;;;;;20.77;75.34;102017.66;4991837;28;20365;-86
2022/07/22 07:31:44;;;;;;;5.93;1.80;;;;;;;20.24;70.19;102012.16;6176930;22;20016;-85
2022/07/22 07:34:44;;;;;;;5.73;2.17;;;;;;;20.25;77.02;102015.72;5005946;28;20501;-86
2022/07/22 07:41:15;;;;;;;4.75;1.90;;;;;;;20.40;77.31;102018.19;4909077;29;20071;-87
2022/07/22 07:44:09;;;;;;;3.42;1.40;;;;;;;20.30;66.77;102015.63;4894063;29;20041;-87
2022/07/22 07:46:47;;;;;;;5.35;1.33;;;;;;;20.33;68.78;102017.75;4989529;28;20030;-86
2022/07/22 07:49:15;;;;;;;3.38;1.30;;;;;;;20.49;66.90;101995.72;4993788;28;20459;-87
2022/07/22 07:52:36;;;;;;;3.65;1.40;;;;;;;20.92;73.45;102002.94;4991222;28;20137;-85
2022/07/22 07:55:38;;;;;;;5.45;1.70;;;;;;;21.18;69.62;102008.75;4932992;28;20529;-85
2022/07/22 08:01:36;;;;;;;5.37;1.90;;;;;;;21.40;63.49;102027.13;4915928;29;20787;-86
2022/07/22 08:04:05;;;;;;;4.07;1.42;;;;;;;21.67;65.21;102027.44;4933081;29;20036;-86
2022/07/22 08:13:47;;;;;;;7.88;2.28;;;;;;;21.79;65.80;102003.19;4932009;29;20046;-85
2022/07/22 08:23:07;;;;;;;4.93;1.80;;;;;;;21.91;64.52;102008.09;4876437;29;20159;-87
2022/07/22 08:25:32;;;;;;;5.00;2.33;;;;;;;21.99;58.87;102012.03;4880026;29;20152;-85
2022/07/22 08:27:58;;;;;;;2.30;1.60;;;;;;;22.29;55.69;102009.69;4968354;28;20038;-86
2022/07/22 08:30:26;;;;;;;6.50;1.92;;;;;;;22.56;55.92;102006.06;4993761;28;20118;-85
2022/07/22 08:32:52;;;;;;;3.03;2.13;;;;;;;22.62;56.88;102004.03;4984657;28;20147;-86
2022/07/22 08:35:18;;;;;;;3.22;1.50;;;;;;;22.72;56.96;102009.22;4973442;28;20122;-87
2022/07/22 08:37:45;;;;;;;2.37;1.10;;;;;;;22.53;54.62;102004.78;4974561;28;20026;-87
2022/07/22 08:40:11;;;;;;;4.47;1.20;;;;;;;22.49;54.90;102009.25;4974330;28;20061;-86
2022/07/22 08:42:38;;;;;;;7.55;1.58;;;;;;;22.30;54.68;101995.75;4957490;28;20054;-85
2022/07/22 08:45:05;;;;;;;2.30;1.30;;;;;;;22.12;54.55;101991.28;4972916;28;20030;-85
2022/07/22 08:47:31;;;;;;;5.57;1.70;;;;;;;22.26;55.90;101999.44;4974096;28;20034;-87
2022/07/22 08:49:56;;;;;;;2.70;1.40;;;;;;;22.66;55.98;101997.63;4978169;28;20034;-87
2022/07/22 08:52:22;;;;;;;3.17;1.73;;;;;;;22.81;54.30;101998.34;5220490;23;20050;-88
2022/07/22 08:54:47;;;;;;;5.78;2.15;;;;;;;22.84;55.35;101995.78;5000633;28;20062;-88
2022/07/22 08:57:12;;;;;;;2.93;1.60;;;;;;;22.99;53.81;101999.25;5006612;28;20018;-86
2022/07/22 08:59:58;;;;;;;5.07;2.00;;;;;;;22.83;55.93;101990.66;5001152;28;20129;-86
2022/07/22 09:02:24;;;;;;;4.20;1.80;;;;;;;22.96;55.06;101997.16;5002276;28;20030;-83
2022/07/22 09:05:01;;;;;;;3.30;1.75;;;;;;;23.11;54.53;102002.19;4999306;28;20033;-86
2022/07/22 09:07:32;;;;;;;6.75;1.90;;;;;;;23.14;55.05;101995.28;5003556;28;20038;-86
2022/07/22 09:09:59;;;;;;;4.88;2.03;;;;;;;23.24;53.32;102000.50;5005630;28;20049;-86
2022/07/22 09:12:27;;;;;;;7.38;2.50;;;;;;;23.23;54.02;102000.81;5012591;28;20119;-94
2022/07/22 09:14:55;;;;;;;5.77;2.30;;;;;;;23.46;50.57;101998.00;4992470;28;20030;-93
2022/07/22 09:17:25;;;;;;;4.57;2.33;;;;;;;23.82;51.46;101986.00;5013560;28;20290;-93
2022/07/22 09:19:52;;;;;;;3.83;2.58;;;;;;;23.96;48.63;101986.63;5002691;28;20030;-95
2022/07/22 09:22:35;;;;;;;5.25;2.33;;;;;;;24.59;53.77;101991.78;4999696;28;20033;-93
2022/07/22 09:25:33;;;;;;;5.85;3.33;;;;;;;24.95;53.67;101987.81;4984232;28;20627;-92
2022/07/22 09:28:14;;;;;;;7.28;3.92;;;;;;;24.95;51.79;101982.34;4975810;28;20031;-96
2022/07/22 09:39:42;;;;;;;6.38;3.08;;;;;;;24.43;53.13;101976.97;5015878;28;20397;-93
2022/07/22 09:43:00;;;;;;;4.70;3.27;;;;;;;24.51;51.52;101959.72;5022387;28;20029;-95
2022/07/22 09:45:34;;;;;;;6.67;2.57;;;;;;;24.48;52.04;101966.66;5031415;28;20293;-94
2022/07/22 10:08:37;;;;;;;5.80;2.53;;;;;;;22.75;53.25;101958.63;5972439;23;20024;-90
2022/07/22 10:42:35;;;;;;;6.87;3.30;;;;;;;25.34;45.99;101974.06;4931485;29;20444;-87
2022/07/22 10:55:17;;;;;;;6.63;2.72;;;;;;;25.84;46.68;101969.72;4958226;28;20077;-84
2022/07/22 10:57:42;;;;;;;9.00;2.90;;;;;;;25.71;45.54;101959.84;4999516;28;20034;-85
2022/07/22 11:00:08;;;;;;;5.20;2.60;;;;;;;25.56;45.38;101961.22;5009325;28;20033;-85
2022/07/22 11:02:36;;;;;;;4.78;2.88;;;;;;;25.03;46.08;101952.47;4990133;28;20101;-86
2022/07/22 11:05:02;;;;;;;4.25;2.60;;;;;;;24.73;47.46;101946.94;5011071;28;20037;-85
2022/07/22 11:07:30;;;;;;;4.20;2.78;;;;;;;24.47;47.91;101942.31;5011558;28;20081;-86
2022/07/22 11:10:18;;;;;;;4.13;2.77;;;;;;;24.44;48.04;101937.50;5001479;28;20040;-86
2022/07/22 11:12:45;;;;;;;6.20;3.07;;;;;;;24.36;47.55;101939.13;5021750;28;20833;-87
2022/07/22 11:15:11;;;;;;;5.28;2.67;;;;;;;24.59;47.22;101936.97;5023480;28;20092;-86
2022/07/22 11:17:37;;;;;;;5.43;2.60;;;;;;;24.58;47.33;101938.09;5015771;28;20388;-86
2022/07/22 11:20:05;;;;;;;4.93;2.85;;;;;;;24.81;47.44;101937.91;5009574;28;20034;-86
2022/07/22 11:22:31;;;;;;;5.07;2.97;;;;;;;25.05;44.70;101941.97;5018328;28;20045;-92
2022/07/22 11:25:01;;;;;;;4.57;2.83;;;;;;;25.62;44.36;101943.44;5017112;28;20293;-87
2022/07/22 11:27:26;;;;;;;5.10;3.08;;;;;;;25.80;42.89;101937.81;4977917;28;20113;-87
2022/07/22 11:29:54;;;;;;;4.15;2.55;;;;;;;26.21;41.35;101938.09;5001495;28;20103;-88
2022/07/22 11:32:21;;;;;;;4.90;2.77;;;;;;;26.87;41.78;101933.66;5012615;28;20109;-88
2022/07/22 11:34:47;;;;;;;4.93;3.20;;;;;;;27.50;41.00;101929.72;5013692;28;20672;-88
2022/07/22 11:37:14;;;;;;;4.40;2.80;;;;;;;27.91;40.23;101936.00;5010070;28;20030;-87
2022/07/22 11:39:39;;;;;;;6.30;3.80;;;;;;;27.93;38.71;101922.69;4995674;28;20078;-88
2022/07/22 11:42:05;;;;;;;9.43;3.90;;;;;;;27.80;38.56;101919.19;5009363;28;20092;-88
2022/07/22 11:44:32;;;;;;;5.32;3.35;;;;;;;27.74;37.70;101912.31;5016451;28;20032;-88
2022/07/22 12:31:08;;;;;;;7.18;4.20;;;;;;;26.90;41.30;101858.72;5043307;23;20387;-89
2022/07/22 12:40:38;;;;;;;6.38;4.07;;;;;;;27.58;39.61;101842.66;5004367;28;20050;-89
2022/07/22 12:43:50;;;;;;;5.93;3.27;;;;;;;27.67;40.19;101865.31;4993260;28;20040;-88
2022/07/22 12:46:46;;;;;;;8.67;3.97;;;;;;;27.43;39.63;101855.16;5009750;23;20286;-90
2022/07/22 13:03:13;;;;;;;4.55;3.75;;;;;;;27.65;40.29;101848.38;4912592;29;20051;-90
2022/07/22 13:06:22;;;;;;;6.75;3.72;;;;;;;27.91;40.19;101838.81;4898355;29;20055;-90
2022/07/22 13:09:21;;;;;;;6.60;4.07;;;;;;;28.30;40.20;101824.50;4913496;29;20040;-91
2022/07/22 13:11:50;;;;;;;5.95;3.53;;;;;;;28.73;38.48;101831.00;4914039;29;20054;-90
2022/07/22 13:14:21;;;;;;;5.70;4.30;;;;;;;28.61;37.54;101831.13;4912474;29;20036;-89
2022/07/22 13:16:46;;;;;;;6.53;4.80;;;;;;;28.21;37.67;101827.44;4913611;29;20291;-89
2022/07/22 13:19:44;;;;;;;6.38;4.25;;;;;;;28.30;38.73;101830.00;4914952;29;20460;-88
2022/07/22 13:26:21;;;;;;;6.30;4.37;;;;;;;28.85;38.88;101841.94;4911802;29;20050;-87
2022/07/22 13:29:05;;;;;;;5.77;4.60;;;;;;;29.16;38.31;101850.47;4893763;29;20843;-87
2022/07/22 13:36:07;;;;;;;7.68;5.40;;;;;;;29.36;36.94;101850.50;4915689;28;20100;-90
2022/07/22 13:38:33;;;;;;;7.47;4.82;;;;;;;29.28;36.72;101844.03;4991926;28;20022;-88
2022/07/22 13:41:26;;;;;;;6.90;4.60;;;;;;;29.52;37.96;101853.22;4992641;28;20375;-89
2022/07/22 13:44:33;;;;;;;7.57;5.03;;;;;;;29.77;36.99;101845.41;4974005;28;20422;-88
2022/07/22 13:47:13;;;;;;;6.37;5.30;;;;;;;29.66;35.45;101839.66;4992493;28;20730;-92
2022/07/22 14:05:49;;;;;;;9.40;6.60;;;;;;;28.32;37.51;101805.63;5030881;28;20052;-87
2022/07/22 14:11:36;;;;;;;8.80;6.00;;;;;;;27.75;38.08;101819.53;5011203;28;20404;-87
2022/07/22 14:14:17;;;;;;;8.10;6.77;;;;;;;27.65;38.20;101807.09;5010572;28;20022;-86
2022/07/22 14:17:32;;;;;;;9.65;6.32;;;;;;;27.81;39.05;101821.66;5011832;28;20030;-87
2022/07/22 14:19:59;;;;;;;8.20;6.43;;;;;;;28.04;37.80;101828.53;5169467;23;20032;-87
2022/07/22 14:27:35;;;;;;;7.47;6.68;;;;;;;27.67;37.22;101807.50;5964375;22;20060;-86
2022/07/22 14:36:08;;;;;;;8.75;6.40;;;;;;;28.40;37.75;101829.44;4945928;28;20078;-87
2022/07/22 14:38:33;;;;;;;11.57;6.55;;;;;;;28.49;37.58;101819.03;5007023;28;20029;-87
2022/07/22 14:43:34;;;;;;;8.27;6.57;;;;;;;29.08;35.58;101813.66;5214988;22;20054;-87
2022/07/22 14:46:02;;;;;;;7.95;5.82;;;;;;;29.31;35.18;101812.94;5013729;28;20093;-87
2022/07/22 14:48:29;;;;;;;10.65;7.20;;;;;;;28.89;35.35;101811.69;5011822;28;20049;-87
2022/07/22 14:50:54;;;;;;;10.48;7.00;;;;;;;28.20;36.42;101803.78;4995802;28;20062;-87
2022/07/22 14:53:20;;;;;;;9.43;7.03;;;;;;;28.16;36.93;101800.91;5014102;28;20061;-87
2022/07/22 14:55:45;;;;;;;11.47;7.07;;;;;;;28.21;37.12;101806.16;5015036;28;20700;-87
2022/07/22 14:58:11;;;;;;;10.57;7.37;;;;;;;28.15;36.24;101796.56;4996438;28;20033;-88
2022/07/22 15:00:36;;;;;;;8.20;6.70;;;;;;;28.50;35.83;101795.81;5014915;28;20079;-87
2022/07/22 15:03:01;;;;;;;7.93;7.13;;;;;;;28.33;35.90;101796.19;5015080;28;20276;-87
2022/07/22 15:05:26;;;;;;;11.10;6.47;;;;;;;28.07;37.36;101792.03;5014399;28;20465;-87
2022/07/22 15:07:52;;;;;;;8.27;6.77;;;;;;;27.72;36.92;101795.47;5013266;28;20034;-87
2022/07/22 15:10:17;;;;;;;10.33;6.70;;;;;;;27.40;37.87;101796.16;5014129;28;20022;-86
2022/07/22 15:12:42;;;;;;;8.10;6.17;;;;;;;27.40;38.79;101784.31;5014663;28;20072;-86
2022/07/22 15:15:08;;;;;;;10.17;6.50;;;;;;;27.55;38.88;101791.88;5014838;28;20108;-88
2022/07/22 15:17:35;;;;;;;8.45;5.75;;;;;;;27.77;37.29;101790.50;5013267;28;20560;-88
2022/07/22 15:20:02;;;;;;;9.70;6.28;;;;;;;28.17;37.44;101799.78;5014855;28;20061;-88
2022/07/22 15:22:27;;;;;;;8.65;6.43;;;;;;;28.19;36.43;101780.16;5012818;28;20092;-88
2022/07/22 15:24:53;;;;;;;6.60;5.50;;;;;;;28.23;36.98;101781.81;5014441;28;20022;-87
2022/07/22 15:27:19;;;;;;;10.65;7.20;;;;;;;27.80;36.26;101788.97;4996704;28;20529;-88
2022/07/22 15:29:44;;;;;;;8.52;6.70;;;;;;;27.50;37.23;101770.91;5014130;28;20034;-89
2022/07/22 15:32:10;;;;;;;8.43;6.40;;;;;;;27.33;38.72;101777.50;5013886;28;20048;-87
2022/07/22 15:34:39;;;;;;;9.60;6.55;;;;;;;27.11;38.66;101773.34;5014138;28;20026;-88
2022/07/22 15:37:05;;;;;;;7.13;5.78;;;;;;;27.05;39.08;101778.25;5015226;28;20033;-86
2022/07/22 15:39:30;;;;;;;9.17;6.13;;;;;;;27.13;38.84;101764.72;5013536;28;20607;-86
2022/07/22 15:41:56;;;;;;;8.10;6.30;;;;;;;26.91;39.23;101766.84;5014470;28;20335;-86
2022/07/22 15:44:21;;;;;;;8.50;6.10;;;;;;;26.84;39.82;101764.69;5015120;28;20032;-86
2022/07/22 15:46:47;;;;;;;7.50;5.77;;;;;;;26.96;39.11;101754.81;5015559;28;20018;-87
2022/07/22 15:54:10;;;;;;;8.68;5.85;;;;;;;27.23;38.78;101725.72;5012327;28;20042;-85
2022/07/22 15:56:42;;;;;;;7.78;6.07;;;;;;;27.34;38.63;101732.31;5012084;28;20036;-85
2022/07/22 16:01:52;;;;;;;10.77;7.03;;;;;;;27.08;39.13;101737.47;5033930;28;20136;-86
2022/07/22 16:04:18;;;;;;;10.23;7.00;;;;;;;26.96;38.39;101744.63;5033578;28;20049;-85
2022/07/22 16:06:43;;;;;;;9.80;6.22;;;;;;;26.56;39.08;101739.88;5033738;28;20025;-83
2022/07/22 16:09:09;;;;;;;6.40;4.87;;;;;;;26.44;40.29;101743.44;5031867;28;20029;-82
2022/07/22 16:11:35;;;;;;;10.55;7.00;;;;;;;26.15;40.01;101750.78;5032937;28;20116;-83
2022/07/22 16:14:00;;;;;;;12.57;6.87;;;;;;;25.51;40.62;101737.25;5031004;28;20033;-84
2022/07/22 16:16:25;;;;;;;9.40;6.47;;;;;;;25.39;41.30;101745.41;5033232;28;20817;-83
2022/07/22 16:18:51;;;;;;;10.93;6.50;;;;;;;25.13;42.09;101740.97;5032528;28;20415;-84
2022/07/22 16:21:16;;;;;;;7.20;6.50;;;;;;;25.09;41.81;101729.06;5031846;28;20420;-85
2022/07/22 16:23:41;;;;;;;10.90;6.63;;;;;;;25.11;41.86;101729.53;5033460;28;20076;-85
2022/07/22 16:26:07;;;;;;;10.60;7.10;;;;;;;25.13;42.34;101724.53;5033232;28;20017;-86
2022/07/22 16:28:32;;;;;;;8.70;6.30;;;;;;;25.42;41.60;101722.00;5033081;28;20055;-85
2022/07/22 16:30:57;;;;;;;11.87;6.13;;;;;;;25.49;42.15;101725.00;5033027;22;20042;-85
2022/07/22 16:33:23;;;;;;;7.70;6.13;;;;;;;25.87;42.08;101736.88;5013043;28;20026;-86
2022/07/22 16:35:48;;;;;;;7.87;5.90;;;;;;;25.81;41.46;101737.09;5013703;28;20037;-85
2022/07/22 16:38:14;;;;;;;8.93;5.90;;;;;;;25.64;41.85;101745.50;5023292;28;20033;-84
2022/07/22 16:40:39;;;;;;;7.35;5.70;;;;;;;25.35;42.88;101747.25;5035961;28;20025;-84
2022/07/22 16:43:04;;;;;;;7.10;5.40;;;;;;;25.17;43.48;101747.41;5048760;28;20037;-84
2022/07/22 16:45:30;;;;;;;8.83;5.77;;;;;;;24.88;44.06;101746.31;5049098;28;20105;-85
2022/07/22 16:47:55;;;;;;;12.07;6.50;;;;;;;24.54;44.21;101742.66;5048668;28;20042;-85
2022/07/22 16:50:35;;;;;;;10.03;6.60;;;;;;;24.39;44.41;101735.00;5132683;22;20038;-83
2022/07/22 16:53:07;;;;;;;8.18;6.22;;;;;;;24.25;45.44;101729.75;5005084;28;20083;-85
2022/07/22 16:55:32;;;;;;;8.55;5.43;;;;;;;24.38;45.46;101716.97;4979909;28;20042;-85
2022/07/22 17:03:54;;;;;;;9.95;5.63;;;;;;;24.20;45.74;101717.84;4099709;26;20077;-90
2022/07/22 17:06:43;;;;;;;9.98;5.95;;;;;;;24.12;46.47;101712.41;5016451;28;20113;-88
2022/07/22 17:09:09;;;;;;;9.23;5.60;;;;;;;23.87;47.53;101709.44;4968355;28;20045;-86
2022/07/22 17:15:09;;;;;;;8.53;5.07;;;;;;;24.07;48.06;101710.69;5015844;28;20037;-89